Time;durP1;ratioP1;P1;durP2;ratioP2;P2;SDS_P1;SDS_P2;PMS_P1;PMS_P2;Temp;Humidity;BMP_temperature;BMP_pressure;BME280_temperature;BME280_humidity;BME280_pressure;Samples;Min_cycle;Max_cycle;Signal;HPM_P1;HPM_P2
2021/12/12 00:00:44;;;;;;;0.10;0.10;;;;;;;;;;5043238;28;20222;-68
2021/12/12 00:03:20;;;;;;;0.20;0.20;;;;;;;;;;5042916;28;20245;-68
2021/12/12 00:05:49;;;;;;;0.20;0.20;;;;;;;;;;5036887;28;20203;-68
2021/12/12 00:08:18;;;;;;;0.13;0.13;;;;;;;;;;5041170;28;20239;-68
2021/12/12 00:10:48;;;;;;;0.20;0.20;;;;;;;;;;5042770;28;20219;-68
2021/12/12 00:13:17;;;;;;;0.20;0.20;;;;;;;;;;5039038;28;20207;-68
2021/12/12 00:15:44;;;;;;;0.17;0.17;;;;;;;;;;5042513;28;20203;-68
2021/12/12 00:18:11;;;;;;;0.20;0.20;;;;;;;;;;5037347;28;20286;-69
2021/12/12 00:20:39;;;;;;;0.20;0.20;;;;;;;;;;5043867;28;20211;-68
2021/12/12 00:23:08;;;;;;;0.20;0.20;;;;;;;;;;5039201;28;20307;-68
2021/12/12 00:25:38;;;;;;;0.10;0.10;;;;;;;;;;5040399;28;20203;-68
2021/12/12 00:28:08;;;;;;;0.20;0.20;;;;;;;;;;5029522;28;20215;-68
2021/12/12 00:30:36;;;;;;;0.17;0.17;;;;;;;;;;5030931;28;20273;-68
2021/12/12 00:33:03;;;;;;;0.20;0.20;;;;;;;;;;5034213;28;20227;-68
2021/12/12 00:35:30;;;;;;;0.20;0.20;;;;;;;;;;5036620;28;20293;-68
2021/12/12 00:37:59;;;;;;;0.20;0.20;;;;;;;;;;5039638;28;20195;-68
2021/12/12 00:40:28;;;;;;;0.20;0.20;;;;;;;;;;5032514;28;20219;-68
2021/12/12 00:42:57;;;;;;;0.20;0.20;;;;;;;;;;5036696;28;20219;-68
2021/12/12 00:45:26;;;;;;;0.20;0.20;;;;;;;;;;5042102;28;20211;-68
2021/12/12 00:47:54;;;;;;;0.20;0.20;;;;;;;;;;5038467;28;20207;-68
2021/12/12 00:50:22;;;;;;;0.10;0.10;;;;;;;;;;5032521;28;20255;-68
2021/12/12 00:52:50;;;;;;;0.20;0.20;;;;;;;;;;5039861;28;20275;-67
2021/12/12 00:55:18;;;;;;;0.20;0.20;;;;;;;;;;5044098;28;20557;-68
2021/12/12 00:57:50;;;;;;;0.20;0.20;;;;;;;;;;5037985;28;20727;-68
2021/12/12 01:00:19;;;;;;;0.20;0.20;;;;;;;;;;5037172;28;20216;-68
2021/12/12 01:02:48;;;;;;;0.20;0.20;;;;;;;;;;5037868;28;20222;-68
2021/12/12 01:05:15;;;;;;;0.20;0.20;;;;;;;;;;5047469;28;20203;-68
2021/12/12 01:07:44;;;;;;;0.20;0.20;;;;;;;;;;5047044;28;20269;-68
2021/12/12 01:10:13;;;;;;;0.20;0.20;;;;;;;;;;5034490;28;20559;-67
2021/12/12 01:12:41;;;;;;;0.20;0.20;;;;;;;;;;5032694;28;20243;-68
2021/12/12 01:15:13;;;;;;;0.20;0.20;;;;;;;;;;5039744;28;20200;-68
2021/12/12 01:17:41;;;;;;;0.20;0.20;;;;;;;;;;5049996;28;20199;-68
2021/12/12 01:20:13;;;;;;;0.20;0.20;;;;;;;;;;5062651;28;20219;-68
2021/12/12 01:22:41;;;;;;;0.20;0.20;;;;;;;;;;5044867;28;20223;-68
2021/12/12 01:25:16;;;;;;;0.20;0.20;;;;;;;;;;5036279;28;20291;-68
2021/12/12 01:27:43;;;;;;;0.20;0.20;;;;;;;;;;5044874;28;20207;-68
2021/12/12 01:30:12;;;;;;;0.10;0.10;;;;;;;;;;5040113;28;20557;-68
2021/12/12 01:32:39;;;;;;;0.10;0.10;;;;;;;;;;5040864;28;20215;-68
2021/12/12 01:35:27;;;;;;;0.20;0.20;;;;;;;;;;5045171;28;20257;-68
2021/12/12 01:40:43;;;;;;;0.20;0.20;;;;;;;;;;5032918;28;20230;-68
2021/12/12 01:43:12;;;;;;;0.10;0.10;;;;;;;;;;5042766;28;20685;-68
2021/12/12 01:45:44;;;;;;;0.20;0.20;;;;;;;;;;5045175;28;20203;-68
2021/12/12 01:48:17;;;;;;;0.20;0.20;;;;;;;;;;5041468;28;20421;-68
2021/12/12 01:50:46;;;;;;;0.10;0.10;;;;;;;;;;5041731;28;20218;-67
2021/12/12 01:53:17;;;;;;;0.20;0.20;;;;;;;;;;5037213;28;20227;-68
2021/12/12 01:55:46;;;;;;;0.20;0.20;;;;;;;;;;5044001;28;20207;-68
2021/12/12 01:58:14;;;;;;;0.10;0.10;;;;;;;;;;5037929;28;20210;-68
2021/12/12 02:00:44;;;;;;;0.20;0.20;;;;;;;;;;5031528;28;20219;-68
2021/12/12 02:03:13;;;;;;;0.20;0.20;;;;;;;;;;5038022;28;20706;-68
2021/12/12 02:05:41;;;;;;;0.20;0.20;;;;;;;;;;5044859;28;20211;-68
2021/12/12 02:08:09;;;;;;;0.10;0.10;;;;;;;;;;5042735;28;20192;-68
2021/12/12 02:10:40;;;;;;;0.20;0.20;;;;;;;;;;5036360;28;20283;-68
2021/12/12 02:13:08;;;;;;;0.20;0.20;;;;;;;;;;5041816;28;20258;-67
2021/12/12 02:15:37;;;;;;;0.20;0.20;;;;;;;;;;5037912;28;20234;-67
2021/12/12 02:18:07;;;;;;;0.30;0.30;;;;;;;;;;5043823;28;20211;-67
2021/12/12 02:20:39;;;;;;;0.20;0.20;;;;;;;;;;5038651;28;20301;-67
2021/12/12 02:23:16;;;;;;;0.20;0.20;;;;;;;;;;5042993;28;20233;-68
2021/12/12 02:36:50;;;;;;;0.20;0.20;;;;;;;;;;5033575;28;20203;-68
2021/12/12 02:39:19;;;;;;;0.20;0.20;;;;;;;;;;5039187;28;20196;-67
2021/12/12 02:41:48;;;;;;;0.20;0.20;;;;;;;;;;5034645;28;20228;-68
2021/12/12 02:44:16;;;;;;;0.20;0.20;;;;;;;;;;5041414;28;20304;-68
2021/12/12 02:46:45;;;;;;;0.10;0.10;;;;;;;;;;5040895;28;20211;-67
2021/12/12 02:49:35;;;;;;;0.20;0.20;;;;;;;;;;5046340;28;20678;-68
2021/12/12 02:52:03;;;;;;;0.20;0.20;;;;;;;;;;5038581;28;20224;-68
2021/12/12 02:54:31;;;;;;;0.20;0.20;;;;;;;;;;5047582;28;20333;-68
2021/12/12 02:56:59;;;;;;;0.20;0.20;;;;;;;;;;5036457;28;20200;-69
2021/12/12 02:59:26;;;;;;;0.20;0.20;;;;;;;;;;5037973;28;20222;-68
2021/12/12 03:01:56;;;;;;;0.20;0.20;;;;;;;;;;5033354;28;20322;-68
2021/12/12 03:04:24;;;;;;;0.10;0.10;;;;;;;;;;5045135;28;20207;-68
2021/12/12 03:06:52;;;;;;;0.20;0.20;;;;;;;;;;5040013;28;20207;-68
2021/12/12 03:09:21;;;;;;;0.20;0.20;;;;;;;;;;5039873;28;20203;-68
2021/12/12 03:11:51;;;;;;;0.20;0.20;;;;;;;;;;5040642;28;20215;-68
2021/12/12 03:14:19;;;;;;;0.20;0.20;;;;;;;;;;5044236;28;20206;-68
2021/12/12 03:16:47;;;;;;;0.20;0.20;;;;;;;;;;5040196;28;20197;-68
2021/12/12 03:19:15;;;;;;;0.10;0.10;;;;;;;;;;5038570;28;20221;-68
2021/12/12 03:21:45;;;;;;;0.20;0.20;;;;;;;;;;5038372;28;20219;-68
2021/12/12 03:24:14;;;;;;;0.10;0.10;;;;;;;;;;5038397;28;20426;-68
2021/12/12 03:26:43;;;;;;;0.20;0.20;;;;;;;;;;5039408;28;20207;-68
2021/12/12 03:29:12;;;;;;;0.20;0.20;;;;;;;;;;5045193;28;20288;-68
2021/12/12 03:31:40;;;;;;;0.20;0.20;;;;;;;;;;5042040;28;20246;-68
2021/12/12 03:34:08;;;;;;;0.10;0.10;;;;;;;;;;5037185;28;20219;-68
2021/12/12 03:36:35;;;;;;;0.20;0.20;;;;;;;;;;5039412;28;20273;-68
2021/12/12 03:39:06;;;;;;;0.20;0.20;;;;;;;;;;5037858;28;20199;-68
2021/12/12 03:41:35;;;;;;;0.10;0.10;;;;;;;;;;5040718;28;20234;-68
2021/12/12 03:44:03;;;;;;;0.20;0.20;;;;;;;;;;5037710;28;20198;-68
2021/12/12 03:46:32;;;;;;;0.20;0.20;;;;;;;;;;5042570;28;20218;-68
2021/12/12 03:48:59;;;;;;;0.20;0.20;;;;;;;;;;5043101;28;20266;-68
2021/12/12 03:51:28;;;;;;;0.20;0.20;;;;;;;;;;5042097;28;20282;-68
2021/12/12 03:53:56;;;;;;;0.20;0.20;;;;;;;;;;5033914;28;20204;-68
2021/12/12 03:56:24;;;;;;;0.20;0.20;;;;;;;;;;5032480;28;20200;-68
2021/12/12 03:58:52;;;;;;;0.20;0.20;;;;;;;;;;5036123;28;20753;-68
2021/12/12 04:01:20;;;;;;;0.20;0.20;;;;;;;;;;5041782;28;20231;-68
2021/12/12 04:03:50;;;;;;;0.10;0.10;;;;;;;;;;5037569;28;20253;-68
2021/12/12 04:06:19;;;;;;;0.10;0.10;;;;;;;;;;5036939;28;20366;-68
2021/12/12 04:08:47;;;;;;;0.20;0.20;;;;;;;;;;5025946;28;20211;-68
2021/12/12 04:11:16;;;;;;;0.20;0.20;;;;;;;;;;5040846;28;20218;-68
2021/12/12 04:13:45;;;;;;;0.20;0.20;;;;;;;;;;5037256;28;20226;-68
2021/12/12 04:16:13;;;;;;;0.10;0.10;;;;;;;;;;5040591;28;20212;-68
2021/12/12 04:18:40;;;;;;;0.20;0.20;;;;;;;;;;5043014;28;20661;-68
2021/12/12 04:21:09;;;;;;;0.20;0.20;;;;;;;;;;5040776;28;20337;-68
2021/12/12 04:23:36;;;;;;;0.20;0.20;;;;;;;;;;5033570;28;20196;-68
2021/12/12 04:26:11;;;;;;;0.20;0.20;;;;;;;;;;5037740;28;20196;-68
2021/12/12 04:28:39;;;;;;;0.20;0.20;;;;;;;;;;5032017;28;20298;-68
2021/12/12 04:31:06;;;;;;;0.20;0.20;;;;;;;;;;5040126;28;20188;-68
2021/12/12 04:33:34;;;;;;;0.20;0.20;;;;;;;;;;5040871;28;20708;-68
2021/12/12 04:36:01;;;;;;;0.10;0.10;;;;;;;;;;5036034;28;20235;-68
2021/12/12 04:38:30;;;;;;;0.20;0.20;;;;;;;;;;5039861;28;20260;-68
2021/12/12 04:40:57;;;;;;;0.20;0.20;;;;;;;;;;5030440;28;20216;-68
2021/12/12 04:43:24;;;;;;;0.20;0.20;;;;;;;;;;5031400;28;20298;-68
2021/12/12 04:46:04;;;;;;;0.20;0.20;;;;;;;;;;5038818;28;20199;-68
2021/12/12 04:51:20;;;;;;;0.10;0.10;;;;;;;;;;5032894;28;20207;-69
2021/12/12 04:53:52;;;;;;;0.20;0.20;;;;;;;;;;5043927;28;20343;-68
2021/12/12 04:56:23;;;;;;;0.20;0.20;;;;;;;;;;5029789;28;20211;-68
2021/12/12 04:58:54;;;;;;;0.20;0.20;;;;;;;;;;5037176;28;20204;-69
2021/12/12 05:01:23;;;;;;;0.20;0.20;;;;;;;;;;5055262;28;20223;-68
2021/12/12 05:03:52;;;;;;;0.20;0.20;;;;;;;;;;5033004;28;20204;-69
2021/12/12 05:06:22;;;;;;;0.17;0.17;;;;;;;;;;5036457;28;20287;-68
2021/12/12 05:08:53;;;;;;;0.20;0.20;;;;;;;;;;5030438;28;20204;-68
2021/12/12 05:11:24;;;;;;;0.20;0.20;;;;;;;;;;5040598;28;20227;-68
2021/12/12 05:13:54;;;;;;;0.20;0.20;;;;;;;;;;5036662;28;20203;-68
2021/12/12 05:16:23;;;;;;;0.20;0.20;;;;;;;;;;5050776;28;20301;-68
2021/12/12 05:18:52;;;;;;;0.20;0.20;;;;;;;;;;5040713;28;20199;-69
2021/12/12 05:21:25;;;;;;;0.10;0.10;;;;;;;;;;5036799;28;20307;-68
2021/12/12 05:23:57;;;;;;;0.20;0.20;;;;;;;;;;5029160;28;20286;-69
2021/12/12 05:26:27;;;;;;;0.10;0.10;;;;;;;;;;5028182;28;20232;-69
2021/12/12 05:28:59;;;;;;;0.20;0.20;;;;;;;;;;5037682;28;20243;-68
2021/12/12 05:31:26;;;;;;;0.13;0.13;;;;;;;;;;5030233;28;20224;-69
2021/12/12 05:33:54;;;;;;;0.10;0.10;;;;;;;;;;5027544;28;20670;-68
2021/12/12 05:36:22;;;;;;;0.20;0.20;;;;;;;;;;5039266;28;20215;-68
2021/12/12 05:38:50;;;;;;;0.10;0.10;;;;;;;;;;5036626;28;20195;-68
2021/12/12 05:41:21;;;;;;;0.20;0.20;;;;;;;;;;5035083;28;20307;-68
2021/12/12 05:43:49;;;;;;;0.10;0.10;;;;;;;;;;5037304;28;20202;-68
2021/12/12 05:46:19;;;;;;;0.20;0.20;;;;;;;;;;5041921;28;20204;-68
2021/12/12 05:48:47;;;;;;;0.10;0.10;;;;;;;;;;5035351;28;20227;-68
2021/12/12 05:51:15;;;;;;;0.20;0.20;;;;;;;;;;5039361;28;20211;-69
2021/12/12 05:53:42;;;;;;;0.13;0.13;;;;;;;;;;5037887;28;20252;-68
2021/12/12 05:56:10;;;;;;;0.10;0.10;;;;;;;;;;5034129;28;20296;-68
2021/12/12 05:58:39;;;;;;;0.20;0.20;;;;;;;;;;5042501;28;20203;-68
2021/12/12 06:01:08;;;;;;;0.15;0.15;;;;;;;;;;5040825;28;20211;-68
2021/12/12 06:03:37;;;;;;;0.15;0.15;;;;;;;;;;5031322;28;20211;-68
2021/12/12 06:06:06;;;;;;;0.20;0.20;;;;;;;;;;5040007;28;20227;-68
2021/12/12 06:08:34;;;;;;;0.20;0.20;;;;;;;;;;5032641;28;20199;-68
2021/12/12 06:11:02;;;;;;;0.20;0.20;;;;;;;;;;5042948;28;20198;-68
2021/12/12 06:13:30;;;;;;;0.10;0.10;;;;;;;;;;5037215;28;20227;-69
2021/12/12 06:16:00;;;;;;;0.20;0.20;;;;;;;;;;5038263;28;20200;-68
2021/12/12 06:18:29;;;;;;;0.20;0.20;;;;;;;;;;5039306;28;20203;-69
2021/12/12 06:20:56;;;;;;;0.20;0.20;;;;;;;;;;5039065;28;20210;-69
2021/12/12 06:23:24;;;;;;;0.10;0.10;;;;;;;;;;5035077;28;20282;-69
2021/12/12 06:25:51;;;;;;;0.10;0.10;;;;;;;;;;5030780;28;20211;-69
2021/12/12 06:28:20;;;;;;;0.20;0.20;;;;;;;;;;5043306;28;20222;-69
2021/12/12 06:30:48;;;;;;;0.20;0.20;;;;;;;;;;5042067;28;20654;-68
2021/12/12 06:33:17;;;;;;;0.20;0.20;;;;;;;;;;5041993;28;20254;-66
2021/12/12 06:35:44;;;;;;;0.20;0.20;;;;;;;;;;5039129;28;20212;-67
2021/12/12 06:38:13;;;;;;;0.20;0.20;;;;;;;;;;5034988;28;20195;-68
2021/12/12 06:40:41;;;;;;;0.10;0.10;;;;;;;;;;5035542;28;20200;-68
2021/12/12 06:43:10;;;;;;;0.20;0.20;;;;;;;;;;5038451;28;20278;-68
2021/12/12 06:45:37;;;;;;;0.20;0.20;;;;;;;;;;5035970;28;20196;-68
2021/12/12 06:48:05;;;;;;;0.10;0.10;;;;;;;;;;5035486;28;20219;-68
2021/12/12 06:50:35;;;;;;;0.20;0.20;;;;;;;;;;5041892;28;20208;-68
2021/12/12 06:53:02;;;;;;;0.20;0.20;;;;;;;;;;5047851;28;20239;-68
2021/12/12 06:55:30;;;;;;;0.10;0.10;;;;;;;;;;5039345;28;20196;-68
2021/12/12 06:57:58;;;;;;;0.20;0.20;;;;;;;;;;5046368;28;20287;-68
2021/12/12 07:00:30;;;;;;;0.20;0.20;;;;;;;;;;5040939;28;20207;-68
2021/12/12 07:02:57;;;;;;;0.20;0.20;;;;;;;;;;5038736;28;20219;-68
2021/12/12 07:05:26;;;;;;;0.20;0.20;;;;;;;;;;5039234;28;20195;-68
2021/12/12 07:07:54;;;;;;;0.20;0.20;;;;;;;;;;5040004;28;20204;-69
2021/12/12 07:10:23;;;;;;;0.10;0.10;;;;;;;;;;5042521;28;20195;-67
2021/12/12 07:12:55;;;;;;;0.20;0.20;;;;;;;;;;5035688;28;20751;-67
2021/12/12 07:15:23;;;;;;;0.20;0.20;;;;;;;;;;5038725;28;20233;-69
2021/12/12 07:17:50;;;;;;;0.10;0.10;;;;;;;;;;5036288;28;20199;-67
2021/12/12 07:20:17;;;;;;;0.10;0.10;;;;;;;;;;5036987;28;20734;-67
2021/12/12 07:22:45;;;;;;;0.15;0.15;;;;;;;;;;5043476;28;20761;-68
2021/12/12 07:25:14;;;;;;;0.10;0.10;;;;;;;;;;5040569;28;20298;-67
2021/12/12 07:27:41;;;;;;;0.20;0.20;;;;;;;;;;5041973;28;20656;-67
2021/12/12 07:30:09;;;;;;;0.10;0.10;;;;;;;;;;5042144;28;20253;-67
2021/12/12 07:32:38;;;;;;;0.10;0.10;;;;;;;;;;5036024;28;20223;-67
2021/12/12 07:35:07;;;;;;;0.20;0.20;;;;;;;;;;5033985;28;20634;-67
2021/12/12 07:37:35;;;;;;;0.10;0.10;;;;;;;;;;5034457;28;20660;-69
2021/12/12 07:40:02;;;;;;;0.13;0.13;;;;;;;;;;5038861;28;20665;-67
2021/12/12 07:42:32;;;;;;;0.13;0.13;;;;;;;;;;5032192;28;20228;-66
2021/12/12 07:44:59;;;;;;;0.10;0.10;;;;;;;;;;5037856;28;20606;-67
2021/12/12 07:47:28;;;;;;;0.20;0.20;;;;;;;;;;5033474;28;20725;-67
2021/12/12 07:49:56;;;;;;;0.10;0.10;;;;;;;;;;5037196;28;20699;-68
2021/12/12 07:52:26;;;;;;;0.10;0.10;;;;;;;;;;5038396;28;20729;-68
2021/12/12 07:54:54;;;;;;;0.20;0.20;;;;;;;;;;5033211;28;20641;-68
2021/12/12 07:57:24;;;;;;;0.13;0.13;;;;;;;;;;5032864;28;20202;-68
2021/12/12 07:59:53;;;;;;;0.20;0.20;;;;;;;;;;5042251;28;20629;-68
2021/12/12 08:02:21;;;;;;;0.10;0.10;;;;;;;;;;5034398;28;20662;-68
2021/12/12 08:04:51;;;;;;;0.20;0.20;;;;;;;;;;5034210;28;20627;-68
2021/12/12 08:07:21;;;;;;;0.10;0.10;;;;;;;;;;5034841;28;20673;-68
2021/12/12 08:09:49;;;;;;;0.10;0.10;;;;;;;;;;5038961;28;20621;-69
2021/12/12 08:12:17;;;;;;;0.13;0.13;;;;;;;;;;5029725;28;20643;-68
2021/12/12 08:14:45;;;;;;;0.10;0.10;;;;;;;;;;5033610;28;20614;-68
2021/12/12 08:17:16;;;;;;;0.20;0.20;;;;;;;;;;5041136;28;20642;-68
2021/12/12 08:19:44;;;;;;;0.20;0.20;;;;;;;;;;5038140;28;20721;-68
2021/12/12 08:22:12;;;;;;;0.20;0.20;;;;;;;;;;5038058;28;20670;-68
2021/12/12 08:24:40;;;;;;;0.20;0.20;;;;;;;;;;5032017;28;20637;-68
2021/12/12 08:27:08;;;;;;;0.10;0.10;;;;;;;;;;5038430;28;20693;-67
2021/12/12 08:29:37;;;;;;;0.20;0.20;;;;;;;;;;5034560;28;20630;-67
2021/12/12 08:32:10;;;;;;;0.10;0.10;;;;;;;;;;5038910;28;20658;-68
2021/12/12 08:34:38;;;;;;;0.10;0.10;;;;;;;;;;5036398;28;20706;-67
2021/12/12 08:37:08;;;;;;;0.20;0.20;;;;;;;;;;5035222;28;20737;-67
2021/12/12 08:39:35;;;;;;;0.20;0.20;;;;;;;;;;5038874;28;20717;-68
2021/12/12 08:42:06;;;;;;;0.20;0.20;;;;;;;;;;5037397;28;20676;-68
2021/12/12 08:44:34;;;;;;;0.10;0.10;;;;;;;;;;5040211;28;20649;-67
2021/12/12 08:47:06;;;;;;;0.10;0.10;;;;;;;;;;5031022;28;20614;-68
2021/12/12 08:49:35;;;;;;;0.10;0.10;;;;;;;;;;5039707;28;20659;-67
2021/12/12 08:52:07;;;;;;;0.13;0.13;;;;;;;;;;5037627;28;20655;-68
2021/12/12 08:54:35;;;;;;;0.20;0.20;;;;;;;;;;5039356;28;20597;-67
2021/12/12 08:57:05;;;;;;;0.10;0.10;;;;;;;;;;5040063;28;20687;-67
2021/12/12 08:59:34;;;;;;;0.10;0.10;;;;;;;;;;5035359;28;20620;-67
2021/12/12 09:02:03;;;;;;;0.10;0.10;;;;;;;;;;5039116;28;20665;-68
2021/12/12 09:04:31;;;;;;;0.10;0.10;;;;;;;;;;5037480;28;20602;-68
2021/12/12 09:07:00;;;;;;;0.10;0.10;;;;;;;;;;5038406;28;20634;-67
2021/12/12 09:09:31;;;;;;;0.10;0.10;;;;;;;;;;5034143;28;20650;-67
2021/12/12 09:12:01;;;;;;;0.10;0.10;;;;;;;;;;5035934;28;20676;-67
2021/12/12 09:14:32;;;;;;;0.13;0.13;;;;;;;;;;5040059;28;20620;-67
2021/12/12 09:17:04;;;;;;;0.20;0.20;;;;;;;;;;5039157;28;20623;-68
2021/12/12 09:19:38;;;;;;;0.10;0.10;;;;;;;;;;5037517;28;20594;-67
2021/12/12 09:22:08;;;;;;;0.10;0.10;;;;;;;;;;5041048;28;20669;-67
2021/12/12 09:24:45;;;;;;;0.20;0.20;;;;;;;;;;5042795;28;20701;-67
2021/12/12 09:27:15;;;;;;;0.20;0.20;;;;;;;;;;5042168;28;20658;-67
2021/12/12 09:29:44;;;;;;;0.10;0.10;;;;;;;;;;5033563;28;20629;-67
2021/12/12 09:32:14;;;;;;;0.10;0.10;;;;;;;;;;5042315;28;20656;-67
2021/12/12 09:34:45;;;;;;;0.10;0.10;;;;;;;;;;5039892;28;20622;-67
2021/12/12 09:37:14;;;;;;;0.10;0.10;;;;;;;;;;5041987;28;20736;-69
2021/12/12 09:39:46;;;;;;;0.10;0.10;;;;;;;;;;5040628;28;20648;-68
2021/12/12 09:42:20;;;;;;;0.17;0.17;;;;;;;;;;5046501;28;20665;-68
2021/12/12 09:45:03;;;;;;;0.10;0.10;;;;;;;;;;5039708;28;20625;-68
2021/12/12 09:47:57;;;;;;;0.10;0.10;;;;;;;;;;5038793;28;20709;-68
2021/12/12 09:53:23;;;;;;;0.13;0.13;;;;;;;;;;5033292;28;20749;-68
2021/12/12 09:55:54;;;;;;;0.20;0.20;;;;;;;;;;5034998;28;20636;-68
2021/12/12 09:58:25;;;;;;;0.10;0.10;;;;;;;;;;5062646;28;20695;-69
2021/12/12 10:00:57;;;;;;;0.10;0.10;;;;;;;;;;5037133;28;20668;-68
2021/12/12 10:03:29;;;;;;;0.10;0.10;;;;;;;;;;5040046;28;20650;-68
2021/12/12 10:06:02;;;;;;;0.10;0.10;;;;;;;;;;5040831;28;20711;-69
2021/12/12 10:08:33;;;;;;;0.13;0.13;;;;;;;;;;5038984;28;20609;-68
2021/12/12 10:11:03;;;;;;;0.17;0.17;;;;;;;;;;5040730;28;20687;-69
2021/12/12 10:13:33;;;;;;;0.20;0.20;;;;;;;;;;5036018;28;20672;-69
2021/12/12 10:16:02;;;;;;;0.20;0.20;;;;;;;;;;5052774;28;20618;-70
2021/12/12 10:18:35;;;;;;;0.10;0.10;;;;;;;;;;5041234;28;20634;-69
2021/12/12 10:21:05;;;;;;;0.20;0.20;;;;;;;;;;5038460;28;21086;-69
2021/12/12 10:23:37;;;;;;;0.20;0.20;;;;;;;;;;5038599;28;21292;-69
2021/12/12 10:26:07;;;;;;;0.20;0.20;;;;;;;;;;5039264;28;20642;-71
2021/12/12 10:28:36;;;;;;;0.10;0.10;;;;;;;;;;5036173;28;20627;-71
2021/12/12 10:31:06;;;;;;;0.10;0.10;;;;;;;;;;5041457;28;20653;-70
2021/12/12 10:33:36;;;;;;;0.20;0.20;;;;;;;;;;5036338;28;20619;-70
2021/12/12 10:36:07;;;;;;;0.10;0.10;;;;;;;;;;5043364;28;20696;-70
2021/12/12 10:38:37;;;;;;;0.10;0.10;;;;;;;;;;5046552;28;20613;-69
2021/12/12 10:41:08;;;;;;;0.20;0.20;;;;;;;;;;5036491;28;20616;-69
2021/12/12 10:43:36;;;;;;;0.10;0.10;;;;;;;;;;5038823;28;20681;-69
2021/12/12 10:46:06;;;;;;;0.10;0.10;;;;;;;;;;5039860;28;20665;-68
2021/12/12 10:48:39;;;;;;;0.10;0.10;;;;;;;;;;5034728;28;20638;-69
2021/12/12 10:51:09;;;;;;;0.10;0.10;;;;;;;;;;5041043;28;21063;-68
2021/12/12 10:53:43;;;;;;;0.10;0.10;;;;;;;;;;5038627;28;20629;-69
2021/12/12 10:56:21;;;;;;;0.10;0.10;;;;;;;;;;5040542;28;20676;-69
2021/12/12 10:58:50;;;;;;;0.20;0.20;;;;;;;;;;5044458;28;20706;-67
2021/12/12 11:01:20;;;;;;;0.10;0.10;;;;;;;;;;5040185;28;20696;-69
2021/12/12 11:03:50;;;;;;;0.10;0.10;;;;;;;;;;5037179;28;20801;-68
2021/12/12 11:06:20;;;;;;;0.20;0.20;;;;;;;;;;5041863;28;20622;-68
2021/12/12 11:08:52;;;;;;;0.10;0.10;;;;;;;;;;5037323;28;20635;-68
2021/12/12 11:11:23;;;;;;;0.10;0.10;;;;;;;;;;5045973;28;20737;-67
2021/12/12 11:13:56;;;;;;;0.17;0.17;;;;;;;;;;5034051;28;20622;-68
2021/12/12 11:16:32;;;;;;;0.20;0.20;;;;;;;;;;5054601;28;20725;-67
2021/12/12 11:19:03;;;;;;;0.20;0.20;;;;;;;;;;5034524;28;20684;-68
2021/12/12 11:21:32;;;;;;;0.10;0.10;;;;;;;;;;5045509;28;20645;-67
2021/12/12 11:24:02;;;;;;;0.20;0.20;;;;;;;;;;5059842;28;20645;-68
2021/12/12 11:26:40;;;;;;;0.20;0.20;;;;;;;;;;5039667;28;20633;-67
2021/12/12 11:29:09;;;;;;;0.10;0.10;;;;;;;;;;5042560;28;20638;-67
2021/12/12 11:31:38;;;;;;;0.10;0.10;;;;;;;;;;5044162;28;21329;-68
2021/12/12 11:34:07;;;;;;;0.10;0.10;;;;;;;;;;5033155;28;20680;-68
2021/12/12 11:36:38;;;;;;;0.10;0.10;;;;;;;;;;5036961;28;20659;-69
2021/12/12 11:39:11;;;;;;;0.10;0.10;;;;;;;;;;5053539;28;20618;-68
2021/12/12 11:41:44;;;;;;;0.10;0.10;;;;;;;;;;5059268;28;20669;-68
2021/12/12 11:44:18;;;;;;;0.10;0.10;;;;;;;;;;5042508;28;20666;-69
2021/12/12 11:46:54;;;;;;;0.10;0.10;;;3.60;99.90;;;;;;5041495;28;20634;-70
2021/12/12 11:49:25;;;;;;;0.20;0.20;;;3.60;99.90;;;;;;5040735;28;20626;-70
2021/12/12 11:51:59;;;;;;;0.10;0.10;;;3.60;99.90;;;;;;5061109;28;20662;-70
2021/12/12 11:54:41;;;;;;;0.10;0.10;;;3.60;99.90;;;;;;5050982;28;20617;-70
2021/12/12 11:57:26;;;;;;;0.10;0.10;;;3.60;99.90;;;;;;5045291;28;21294;-69
2021/12/12 12:00:03;;;;;;;0.10;0.10;;;3.60;99.90;;;;;;5042303;28;20664;-69
2021/12/12 12:02:46;;;;;;;0.10;0.10;;;3.60;99.90;;;;;;5044360;28;20629;-68
2021/12/12 12:05:45;;;;;;;0.10;0.10;;;3.60;99.90;;;;;;5036310;28;20648;-68
2021/12/12 12:08:23;;;;;;;0.20;0.20;;;3.70;99.90;;;;;;5037374;28;20621;-67
2021/12/12 12:11:06;;;;;;;0.10;0.10;;;3.60;99.90;;;;;;5043534;28;21235;-68
2021/12/12 12:13:50;;;;;;;0.10;0.10;;;3.70;99.90;;;;;;5042329;28;20640;-69
2021/12/12 12:16:33;;;;;;;0.10;0.10;;;3.70;99.90;;;;;;5037761;28;20668;-68
2021/12/12 12:19:12;;;;;;;0.10;0.10;;;3.70;99.90;;;;;;5043736;28;20630;-69
2021/12/12 12:21:54;;;;;;;0.10;0.10;;;3.70;99.90;;;;;;5040372;28;20653;-68
2021/12/12 12:24:38;;;;;;;0.10;0.10;;;3.70;99.90;;;;;;5036980;28;20658;-68
2021/12/12 12:27:09;;;;;;;0.10;0.10;;;3.80;99.90;;;;;;5037588;28;20622;-67
2021/12/12 12:30:29;;;;;;;0.10;0.10;;;3.80;99.90;;;;;;5055954;28;20645;-67
2021/12/12 12:33:29;;;;;;;0.20;0.20;;;3.80;99.90;;;;;;5034945;28;20655;-71
2021/12/12 12:36:48;;;;;;;0.10;0.10;;;3.80;99.90;;;;;;5041649;28;20708;-68
2021/12/12 12:39:49;;;;;;;0.10;0.10;;;3.80;99.90;;;;;;5002224;28;20622;-68
2021/12/12 12:42:52;;;;;;;0.20;0.20;;;3.90;99.90;;;;;;4978739;28;20681;-68
2021/12/12 12:45:55;;;;;;;0.10;0.10;;;3.80;99.90;;;;;;4999408;28;20638;-69
2021/12/12 12:48:56;;;;;;;0.10;0.10;;;3.90;99.90;;;;;;5045711;28;20687;-67
2021/12/12 12:51:49;;;;;;;0.10;0.10;;;3.90;99.90;;;;;;5019434;28;21032;-68
2021/12/12 12:54:27;;;;;;;0.10;0.10;;;3.90;99.90;;;;;;5053090;28;20744;-68
2021/12/12 12:57:24;;;;;;;0.10;0.10;;;3.90;99.90;;;;;;5053907;28;20614;-68
2021/12/12 13:00:06;;;;;;;0.10;0.10;;;3.90;99.90;;;;;;5049883;28;20661;-67
2021/12/12 13:03:07;;;;;;;0.10;0.10;;;4.00;99.90;;;;;;5064121;28;20752;-68
2021/12/12 13:06:28;;;;;;;0.10;0.10;;;4.00;99.90;;;;;;5042107;28;20633;-68
2021/12/12 13:09:22;;;;;;;0.20;0.20;;;4.00;99.90;;;;;;5043025;28;20629;-68
2021/12/12 13:12:26;;;;;;;0.20;0.20;;;4.10;99.90;;;;;;5040788;28;20652;-68
2021/12/12 13:15:03;;;;;;;0.10;0.10;;;4.10;99.90;;;;;;5047682;28;20620;-68
2021/12/12 13:17:53;;;;;;;0.10;0.10;;;4.10;99.90;;;;;;5046400;28;20649;-68
2021/12/12 13:20:31;;;;;;;0.10;0.10;;;4.10;99.90;;;;;;5050356;28;20622;-67
2021/12/12 13:23:18;;;;;;;0.10;0.10;;;4.10;99.90;;;;;;5052685;28;20688;-67
2021/12/12 13:25:55;;;;;;;0.20;0.20;;;4.10;99.90;;;;;;5049272;28;20620;-67
2021/12/12 13:28:31;;;;;;;0.10;0.10;;;4.10;99.90;;;;;;5048654;28;20703;-68
2021/12/12 13:31:03;;;;;;;0.10;0.10;;;4.10;99.90;;;;;;5047185;28;20661;-68
2021/12/12 13:33:40;;;;;;;0.10;0.10;;;4.10;99.90;;;;;;5045860;28;20633;-67
2021/12/12 13:36:29;;;;;;;0.10;0.10;;;4.10;99.90;;;;;;5053334;28;20614;-67
2021/12/12 13:39:10;;;;;;;0.17;0.17;;;4.10;99.90;;;;;;5044408;28;20693;-68
2021/12/12 13:42:09;;;;;;;0.10;0.10;;;4.10;99.90;;;;;;5036948;28;20728;-67
2021/12/12 13:45:08;;;;;;;0.10;0.10;;;4.10;99.90;;;;;;5066504;28;20663;-68
2021/12/12 13:47:49;;;;;;;0.10;0.10;;;4.10;99.90;;;;;;5056478;28;20621;-68
2021/12/12 13:50:36;;;;;;;0.10;0.10;;;4.10;99.90;;;;;;5046229;28;20633;-66
2021/12/12 13:53:09;;;;;;;0.20;0.20;;;4.10;99.90;;;;;;5051697;28;20643;-69
2021/12/12 13:55:44;;;;;;;0.10;0.10;;;4.10;99.90;;;;;;5041243;28;20696;-69
2021/12/12 13:58:24;;;;;;;0.10;0.10;;;4.10;99.90;;;;;;5043727;28;20605;-68
2021/12/12 14:00:57;;;;;;;0.10;0.10;;;4.10;99.90;;;;;;5042142;28;20656;-69
2021/12/12 14:03:34;;;;;;;0.10;0.10;;;4.20;99.90;;;;;;5045086;28;20672;-69
2021/12/12 14:06:07;;;;;;;0.10;0.10;;;4.10;99.90;;;;;;5050297;28;20621;-67
2021/12/12 14:08:43;;;;;;;0.13;0.13;;;4.20;99.90;;;;;;5052307;28;20626;-68
2021/12/12 14:11:20;;;;;;;0.10;0.10;;;4.20;99.90;;;;;;5076261;28;20625;-68
2021/12/12 14:13:52;;;;;;;0.10;0.10;;;4.20;99.90;;;;;;5060714;28;20636;-68
2021/12/12 14:16:26;;;;;;;0.10;0.10;;;4.20;99.90;;;;;;5048476;28;20664;-68
2021/12/12 14:19:02;;;;;;;0.10;0.10;;;4.20;99.90;;;;;;5048660;28;20630;-68
2021/12/12 14:21:30;;;;;;;0.10;0.10;;;4.20;99.90;;;;;;5049239;28;20661;-68
2021/12/12 14:23:59;;;;;;;0.13;0.13;;;4.30;99.90;;;;;;5044218;28;20662;-68
2021/12/12 14:26:31;;;;;;;0.10;0.10;;;4.30;99.90;;;;;;5048433;28;20701;-69
2021/12/12 14:29:05;;;;;;;0.10;0.10;;;4.30;99.90;;;;;;5044592;28;20672;-68
2021/12/12 14:31:36;;;;;;;0.10;0.10;;;4.30;99.90;;;;;;5045229;28;20645;-69
2021/12/12 14:34:14;;;;;;;0.10;0.10;;;4.30;99.90;;;;;;5044409;28;20665;-68
2021/12/12 14:36:45;;;;;;;0.10;0.10;;;4.30;99.90;;;;;;5044979;28;20640;-69
2021/12/12 14:39:15;;;;;;;0.10;0.10;;;4.30;99.90;;;;;;5046705;28;20637;-69
2021/12/12 14:41:53;;;;;;;0.10;0.10;;;4.30;99.90;;;;;;5045293;28;20686;-68
2021/12/12 14:44:37;;;;;;;0.10;0.10;;;4.30;99.90;;;;;;5045443;28;20658;-69
2021/12/12 14:47:09;;;;;;;0.10;0.10;;;4.30;99.90;;;;;;5056913;28;20625;-69
2021/12/12 14:49:41;;;;;;;0.10;0.10;;;4.30;99.90;;;;;;5046985;28;20725;-69
2021/12/12 14:52:18;;;;;;;0.10;0.10;;;4.30;99.90;;;;;;5040145;28;20654;-68
2021/12/12 14:54:50;;;;;;;0.10;0.10;;;4.30;99.90;;;;;;5046529;28;20628;-68
2021/12/12 14:57:25;;;;;;;0.10;0.10;;;4.30;99.90;;;;;;5066081;28;21184;-68
2021/12/12 15:00:00;;;;;;;0.10;0.10;;;4.20;99.90;;;;;;5046781;28;20684;-68
2021/12/12 15:02:36;;;;;;;0.10;0.10;;;4.20;99.90;;;;;;5041925;28;20661;-68
2021/12/12 15:05:11;;;;;;;0.10;0.10;;;4.20;99.90;;;;;;5048750;28;20660;-68
2021/12/12 15:07:44;;;;;;;0.10;0.10;;;4.20;99.90;;;;;;5047111;28;20725;-67